ENCNEKVG

Guest
Details From ENCN - Kristiansand lufthavn Kjevik
To EKVG - Vagar
Flight Number -
Tags generated
Created
Modified
Stats Distance 520 nm / 963 km
Max Altitude 34,000 ft / 10,363 m
Waypoints 5
Social Downloads 0
Likes 0
Share VATSIM

Download

Looking for another format? Having issues loading an existing format? Contact us
Advertisement - Login to hide

Notes

Basic altitude profile: - Ascent Rate: 2500ft/min - Ascent Speed: 250kts - Cruise Altitude: 35000ft - Cruise Speed: 420kts - Descent Rate: 1500ft/min - Descent Speed: 250kts Options: - Use NATs: yes - Use PACOTS: yes - Use low airways: yes - Use high airways: yes

Route

ENCN ZOL UL621 VALDI G3 CONNY EKVG

ID Type Via Altitude Latitude Longitude Leg Dist Tot Dist Heading (true) Name
O ENCN APT - 0 ft / 0 m 58.20419˚ 8.08534˚ - 0 nm - Kristiansand lufthavn Kjevik
ZOL VOR - 30,900 ft / 9,418 m 58.87506˚ 5.64015˚ 86 nm 86 nm 299° / 297° SOLA VOR-DME
VALDI FIX UL621 (AWY-HI) 34,000 ft / 10,363 m 61.21417˚ 0.00000˚ 219 nm 306 nm 312° / 307° -
CONNY FIX G3 (AWY-LO) 10,400 ft / 3,170 m 61.90000˚ -5.58333˚ 164 nm 471 nm 287° / 282° -
O EKVG APT - 0 ft / 0 m 62.06358˚ -7.27704˚ 48 nm 519 nm 282° / 281° Vagar

Altitude Profile

Advertisement - Login to hide

Weather


0- 5 10 15 20 25 30 35+ Temperature / ° C

Clouds and Precipitation
Forecast for 2018-05-24 18:00 UTC. Updated an hour ago

Ground ~20,000 ft ~40,000 ft Winds

ENCN

Details ICAO ENCN (KRS)
Name Kristiansand lufthavn Kjevik
Region Norway
Timezone Europe/Oslo (UTC+2.0)
Stats Elevation 57 ft / 17 m (AMSL)
Location 58.204191° 8.085337°
Runways 1
Magnetic Variation 2.184° E

METAR

ENCN 241820Z 19004KT CAVOK 20/12 Q1027

Decode

TAF

Not found

Departure Runways

ID Width Length Bearing (true) Bearing (mag) Surface Threshold Offset Overrun Length
04 148 ft / 45 m 6,667 ft / 2,032 m 34.94° 32.76° Asphalt 217 ft / 66 m 131 ft / 40 m
22 148 ft / 45 m 6,667 ft / 2,032 m 214.96° 212.78° Asphalt 325 ft / 99 m 312 ft / 95 m

EKVG

Details ICAO EKVG (FAE)
Name Vagar
Region Denmark / Faroe Islands
Timezone Atlantic/Faroe (UTC+1.0)
Stats Elevation 280 ft / 85 m (AMSL)
Location 62.063584° -7.277044°
Runways 1
Magnetic Variation 5.290° W

METAR

EKVG 241820Z AUTO 19012KT 9999NDV SCT009/// BKN038/// 10/09 Q1021 RMK BKN000/// BKN100/// WIND 850FT 20015KT 170V270

Decode

TAF

Not found

Destination Runways

ID Width Length Bearing (true) Bearing (mag) Surface Threshold Offset Overrun Length
13 98 ft / 30 m 4,088 ft / 1,246 m 117.92° 123.21° Asphalt 0 ft / 0 m 197 ft / 60 m
31 98 ft / 30 m 4,088 ft / 1,246 m 297.94° 303.23° Asphalt 0 ft / 0 m 197 ft / 60 m

Approach Navaids

Runway Type Ident Frequency Range Bearing (true) Bearing (mag) Slope Elevation
13 Localiser SF 109.10 MHz 17 nm / 31 km 104.19° 109.47° - 268 ft / 82 m (AMSL)
13 DME SF 109.10 MHz 18 nm / 33 km - - - 268 ft / 82 m (AMSL)
31 Localiser MF 110.30 MHz 26 nm / 48 km 296.18° 301.47° - 276 ft / 84 m (AMSL)
31 DME MF 110.30 MHz 25 nm / 46 km - - - 275 ft / 84 m (AMSL)